Walden, Minnesota
Current Conditions -  °F | °C
As of 10:13 AM on Thursday 18 Dec 2014 (Local Time) from KSAZ Reporting Station
Overcast Overcast  
Wind Chill: 12°   Ceiling: 1600
Heat Index: 12°   Visibility: 7mi
Dew Point: 10°   Wind: 3mph
Humidity: 92%   Direction: 130°SE
Pressure: 30.27"   Gusts: NA
Location:  46.6535°N, 94.5389°W
Report Text: KSAZ 181613Z AUTO 13003KT 7SM OVC016 M11/M12 A3027 RMK AO2
Loading
Personal Weather Stations






























Interactive Weather Map New forecast layout! Learn more

10-Day Weather Forecast

Advertisements
Track Severe Weather on mobile